createdAt,value
2023-03-11T00:01:59.926Z,0.50
2023-03-11T00:04:26.493Z,0.37
2023-03-11T00:06:53.024Z,0.40
2023-03-11T00:09:19.516Z,0.40
2023-03-11T00:11:46.056Z,0.27
2023-03-11T00:14:12.581Z,0.30
2023-03-11T00:16:39.137Z,0.93
2023-03-11T00:19:05.686Z,0.20
2023-03-11T00:21:32.195Z,0.23
2023-03-11T00:24:01.148Z,0.20
2023-03-11T00:26:27.647Z,0.30
2023-03-11T00:28:55.491Z,0.67
2023-03-11T00:31:22.756Z,0.60
2023-03-11T00:33:49.313Z,0.40
2023-03-11T00:36:22.807Z,0.40
2023-03-11T00:38:49.383Z,0.60
2023-03-11T00:41:15.962Z,0.50
2023-03-11T00:43:42.562Z,0.40
2023-03-11T00:46:09.663Z,0.70
2023-03-11T00:48:36.181Z,0.53
2023-03-11T00:51:02.805Z,0.60
2023-03-11T00:53:29.345Z,0.67
2023-03-11T00:55:55.885Z,0.73
2023-03-11T00:58:27.248Z,0.60
2023-03-11T01:00:55.607Z,0.80
2023-03-11T01:03:22.280Z,0.77
2023-03-11T01:05:49.317Z,0.63
2023-03-11T01:08:15.856Z,0.70
2023-03-11T01:10:42.417Z,0.73
2023-03-11T01:13:08.963Z,0.60
2023-03-11T01:15:36.631Z,0.53
2023-03-11T01:18:03.409Z,1.07
2023-03-11T01:20:32.360Z,0.50
2023-03-11T01:22:58.946Z,0.70
2023-03-11T01:25:25.539Z,0.60
2023-03-11T01:27:52.140Z,0.70
2023-03-11T01:30:20.257Z,0.67
2023-03-11T01:32:46.987Z,0.60
2023-03-11T01:35:15.002Z,0.63
2023-03-11T01:37:41.633Z,0.60
2023-03-11T01:40:12.128Z,0.50
2023-03-11T01:42:38.731Z,0.50
2023-03-11T01:45:25.511Z,0.40
2023-03-11T01:47:52.062Z,0.60
2023-03-11T01:50:18.696Z,0.70
2023-03-11T01:52:45.375Z,0.50
2023-03-11T01:55:12.804Z,0.40
2023-03-11T01:57:40.288Z,0.67
2023-03-11T02:00:08.973Z,0.40
2023-03-11T02:02:44.868Z,0.43
2023-03-11T02:05:13.123Z,0.40
2023-03-11T02:07:40.765Z,0.40
2023-03-11T02:10:11.113Z,0.40
2023-03-11T02:12:37.954Z,0.57
2023-03-11T02:15:05.169Z,2.63
2023-03-11T02:17:35.005Z,0.57
2023-03-11T02:20:02.001Z,0.50
2023-03-11T02:22:33.597Z,0.70
2023-03-11T02:25:12.379Z,0.70
2023-03-11T02:27:41.367Z,0.63
2023-03-11T02:30:10.515Z,0.90
2023-03-11T02:32:38.303Z,1.03
2023-03-11T02:35:05.252Z,0.80
2023-03-11T02:37:31.817Z,0.90
2023-03-11T02:40:22.012Z,0.70
2023-03-11T02:42:51.208Z,0.70
2023-03-11T02:45:19.646Z,0.93
2023-03-11T02:47:46.471Z,0.90
2023-03-11T02:50:15.278Z,0.83
2023-03-11T02:52:44.478Z,0.97
2023-03-11T02:55:12.021Z,1.13
2023-03-11T02:57:39.759Z,0.90
2023-03-11T03:00:14.779Z,1.30
2023-03-11T03:02:46.012Z,1.27
2023-03-11T03:05:13.515Z,1.40
2023-03-11T03:07:42.321Z,1.50
2023-03-11T03:10:09.238Z,1.00
2023-03-11T03:12:35.815Z,1.20
2023-03-11T03:15:02.653Z,1.57
2023-03-11T03:17:29.198Z,1.60
2023-03-11T03:19:55.874Z,1.70
2023-03-11T03:22:25.138Z,1.80
2023-03-11T03:24:52.962Z,1.70
2023-03-11T03:27:19.940Z,1.50
2023-03-11T03:29:46.546Z,1.83
2023-03-11T03:32:13.411Z,1.57
2023-03-11T03:34:39.975Z,1.60
2023-03-11T03:37:06.660Z,1.00
2023-03-11T03:39:33.900Z,0.70
2023-03-11T03:42:00.689Z,0.80
2023-03-11T03:44:30.725Z,0.87
2023-03-11T03:46:58.682Z,0.87
2023-03-11T03:49:25.601Z,0.47
2023-03-11T03:51:52.662Z,0.73
2023-03-11T03:54:29.840Z,0.60
2023-03-11T03:56:57.621Z,0.50
2023-03-11T03:59:24.646Z,0.40
2023-03-11T04:01:55.160Z,0.30
2023-03-11T04:04:23.417Z,0.40
2023-03-11T04:06:50.444Z,0.40
2023-03-11T04:09:18.659Z,0.50
2023-03-11T04:11:45.687Z,0.40
2023-03-11T04:14:14.219Z,0.50
2023-03-11T04:16:48.449Z,0.30
2023-03-11T04:19:15.404Z,0.40
2023-03-11T04:21:42.010Z,0.50
2023-03-11T04:24:08.847Z,0.70
2023-03-11T04:26:37.662Z,0.70
2023-03-11T04:29:07.268Z,0.90
2023-03-11T04:31:39.264Z,0.93
2023-03-11T04:34:07.189Z,0.70
2023-03-11T04:36:35.590Z,0.90
2023-03-11T04:39:02.550Z,0.83
2023-03-11T04:41:32.826Z,0.97
2023-03-11T04:43:59.408Z,1.10
2023-03-11T04:46:26.396Z,1.00
2023-03-11T04:48:53.076Z,1.10
2023-03-11T04:51:19.661Z,0.90
2023-03-11T04:53:46.606Z,1.20
2023-03-11T04:56:13.199Z,1.10
2023-03-11T04:58:40.469Z,1.30
2023-03-11T05:01:07.324Z,1.20
2023-03-11T05:03:33.988Z,1.07
2023-03-11T05:06:00.916Z,1.20
2023-03-11T05:08:27.501Z,1.47
2023-03-11T05:10:54.160Z,1.53
2023-03-11T05:13:22.186Z,4.10
2023-03-11T05:15:51.200Z,2.30
2023-03-11T05:18:17.752Z,1.33
2023-03-11T05:20:44.961Z,1.60
2023-03-11T05:23:13.187Z,1.80
2023-03-11T05:25:40.239Z,2.03
2023-03-11T05:28:07.338Z,1.50
2023-03-11T05:30:38.480Z,1.77
2023-03-11T05:33:05.061Z,1.70
2023-03-11T05:35:31.856Z,1.63
2023-03-11T05:37:59.026Z,1.60
2023-03-11T05:40:28.119Z,2.30
2023-03-11T05:42:54.811Z,2.63
2023-03-11T05:45:21.748Z,1.90
2023-03-11T05:47:51.802Z,1.80
2023-03-11T05:50:19.242Z,2.00
2023-03-11T05:52:46.905Z,2.20
2023-03-11T05:55:13.737Z,3.30
2023-03-11T05:57:43.388Z,2.57
2023-03-11T06:00:12.307Z,2.40
2023-03-11T06:02:46.147Z,2.10
2023-03-11T06:05:16.279Z,1.83
2023-03-11T06:07:44.716Z,1.47
2023-03-11T06:10:11.661Z,1.80
2023-03-11T06:12:39.011Z,1.30
2023-03-11T06:15:18.321Z,1.30
2023-03-11T06:17:45.143Z,1.37
2023-03-11T06:20:12.295Z,1.63
2023-03-11T06:22:40.420Z,1.50
2023-03-11T06:25:08.171Z,2.13
2023-03-11T06:27:36.279Z,1.63
2023-03-11T06:30:03.752Z,1.60
2023-03-11T06:32:36.472Z,1.63
2023-03-11T06:35:03.727Z,1.47
2023-03-11T06:37:30.264Z,1.30
2023-03-11T06:39:57.072Z,1.30
2023-03-11T06:42:25.421Z,1.40
2023-03-11T06:44:54.517Z,1.70
2023-03-11T06:47:21.345Z,1.70
2023-03-11T06:49:50.052Z,1.53
2023-03-11T06:52:16.635Z,1.80
2023-03-11T06:54:43.936Z,1.63
2023-03-11T06:57:10.808Z,1.80
2023-03-11T06:59:38.560Z,1.73
2023-03-11T07:02:06.488Z,2.20
2023-03-11T07:04:33.554Z,1.93
2023-03-11T07:07:00.160Z,3.40
2023-03-11T07:09:27.829Z,2.23
2023-03-11T07:11:55.473Z,1.80
2023-03-11T07:14:28.468Z,1.90
2023-03-11T07:16:56.265Z,1.53
2023-03-11T07:19:28.940Z,2.00
2023-03-11T07:21:55.529Z,1.83
2023-03-11T07:24:22.087Z,2.10
2023-03-11T07:26:48.570Z,2.00
2023-03-11T07:29:15.193Z,2.30
2023-03-11T07:31:41.865Z,2.30
2023-03-11T07:34:11.472Z,2.23
2023-03-11T07:36:39.908Z,2.00
2023-03-11T07:39:06.502Z,2.67
2023-03-11T07:41:34.046Z,2.00
2023-03-11T07:44:01.623Z,2.47
2023-03-11T07:46:29.328Z,2.67
2023-03-11T07:48:56.268Z,2.43
2023-03-11T07:51:24.132Z,2.20
2023-03-11T07:53:52.043Z,2.30
2023-03-11T07:56:19.413Z,3.43
2023-03-11T07:58:46.197Z,2.70
2023-03-11T08:01:16.166Z,4.27
2023-03-11T08:03:43.708Z,3.00
2023-03-11T08:06:14.302Z,3.50
2023-03-11T08:08:41.156Z,3.70
2023-03-11T08:11:07.668Z,3.60
2023-03-11T08:13:34.321Z,3.77
2023-03-11T08:16:03.480Z,10.50
2023-03-11T08:18:30.888Z,3.50
2023-03-11T08:20:57.746Z,4.10
2023-03-11T08:23:24.298Z,4.10
2023-03-11T08:25:50.956Z,4.30
2023-03-11T08:28:18.653Z,4.03
2023-03-11T08:30:45.179Z,4.27
2023-03-11T08:33:11.849Z,4.40
2023-03-11T08:35:38.521Z,5.60
2023-03-11T08:38:05.390Z,4.30
2023-03-11T08:40:31.995Z,4.60
2023-03-11T08:42:58.617Z,4.83
2023-03-11T08:45:25.169Z,4.77
2023-03-11T08:47:51.798Z,4.73
2023-03-11T08:50:20.023Z,4.57
2023-03-11T08:52:46.670Z,5.10
2023-03-11T08:55:18.583Z,9.20
2023-03-11T08:57:45.151Z,4.90
2023-03-11T09:00:13.241Z,5.77
2023-03-11T09:02:41.597Z,5.20
2023-03-11T09:05:08.386Z,5.73
2023-03-11T09:07:34.954Z,5.07
2023-03-11T09:10:01.453Z,5.40
2023-03-11T09:12:28.110Z,6.80
2023-03-11T09:14:56.225Z,5.47
2023-03-11T09:17:22.781Z,5.27
2023-03-11T09:19:49.442Z,5.30
2023-03-11T09:22:16.054Z,5.37
2023-03-11T09:24:42.616Z,5.57
2023-03-11T09:27:09.322Z,5.57
2023-03-11T09:29:35.818Z,5.47
2023-03-11T09:32:02.374Z,5.47
2023-03-11T09:34:28.867Z,4.90
2023-03-11T09:36:55.376Z,5.90
2023-03-11T09:39:21.982Z,5.27
2023-03-11T09:41:58.435Z,5.43
2023-03-11T09:44:48.243Z,4.60
2023-03-11T09:47:20.621Z,5.77
2023-03-11T09:49:53.403Z,7.37
2023-03-11T09:52:25.363Z,5.30
2023-03-11T09:54:53.401Z,4.93
2023-03-11T09:57:22.977Z,5.67
2023-03-11T09:59:49.964Z,6.67
2023-03-11T10:02:20.212Z,5.40
2023-03-11T10:05:05.617Z,5.60
2023-03-11T10:07:41.828Z,5.13
2023-03-11T10:10:12.461Z,5.50
2023-03-11T10:12:48.067Z,4.87
2023-03-11T10:15:24.845Z,5.03
2023-03-11T10:17:58.746Z,5.60
2023-03-11T10:20:31.328Z,5.07
2023-03-11T10:23:06.717Z,4.73
2023-03-11T10:25:42.062Z,5.07
2023-03-11T10:28:16.597Z,5.03
2023-03-11T10:31:09.426Z,5.77
2023-03-11T10:33:41.329Z,5.20
2023-03-11T10:36:11.868Z,5.67
2023-03-11T10:38:43.135Z,5.43
2023-03-11T10:41:22.499Z,5.67
2023-03-11T10:43:54.967Z,5.93
2023-03-11T10:46:26.270Z,5.47
2023-03-11T10:48:52.946Z,5.57
2023-03-11T10:51:22.714Z,5.80
2023-03-11T10:53:51.275Z,4.93
2023-03-11T10:56:28.890Z,5.17
2023-03-11T10:58:55.664Z,4.97
2023-03-11T11:01:22.325Z,4.63
2023-03-11T11:03:50.844Z,5.10
2023-03-11T11:06:28.846Z,5.30
2023-03-11T11:09:26.900Z,4.63
2023-03-11T11:12:02.529Z,5.17
2023-03-11T11:15:01.263Z,5.13
2023-03-11T11:17:32.644Z,4.57
2023-03-11T11:20:01.026Z,5.13
2023-03-11T11:22:28.524Z,5.00
2023-03-11T11:24:55.932Z,5.60
2023-03-11T11:27:23.965Z,5.00
2023-03-11T11:30:10.476Z,5.50
2023-03-11T11:32:37.573Z,6.00
2023-03-11T11:35:10.266Z,5.83
2023-03-11T11:37:38.859Z,5.80
2023-03-11T11:40:19.652Z,5.20
2023-03-11T11:42:51.584Z,5.43
2023-03-11T11:45:44.565Z,5.43
2023-03-11T11:48:29.902Z,7.83
2023-03-11T11:50:58.976Z,6.50
2023-03-11T11:53:31.163Z,6.10
2023-03-11T11:55:57.704Z,5.83
2023-03-11T11:58:24.388Z,6.50
2023-03-11T12:00:56.901Z,6.43
2023-03-11T12:03:33.659Z,6.67
2023-03-11T12:06:02.940Z,6.97
2023-03-11T12:08:29.446Z,7.30
2023-03-11T12:11:03.190Z,6.87
2023-03-11T12:13:48.559Z,9.20
2023-03-11T12:16:31.515Z,7.57
2023-03-11T12:19:04.312Z,7.23
2023-03-11T12:21:40.125Z,7.27
2023-03-11T12:24:12.604Z,7.33
2023-03-11T12:26:41.307Z,8.93
2023-03-11T12:29:12.174Z,6.70
2023-03-11T12:31:41.693Z,8.20
2023-03-11T12:34:11.053Z,7.73
2023-03-11T12:36:39.538Z,7.53
2023-03-11T12:39:07.710Z,6.97
2023-03-11T12:41:43.973Z,8.53
2023-03-11T12:44:30.048Z,6.73
2023-03-11T12:46:59.344Z,8.90
2023-03-11T12:49:27.321Z,6.93
2023-03-11T12:52:09.052Z,7.40
2023-03-11T12:54:36.875Z,7.57
2023-03-11T12:57:05.588Z,7.30
2023-03-11T12:59:50.639Z,7.57
2023-03-11T13:02:35.551Z,8.20
2023-03-11T13:05:17.978Z,9.77
2023-03-11T13:07:49.127Z,8.93
2023-03-11T13:10:18.144Z,8.90
2023-03-11T13:12:51.764Z,8.30
2023-03-11T13:15:18.271Z,8.93
2023-03-11T13:18:03.443Z,8.63
2023-03-11T13:20:39.091Z,9.03
2023-03-11T13:23:14.528Z,9.87
2023-03-11T13:25:41.107Z,9.63
2023-03-11T13:28:20.013Z,9.80
2023-03-11T13:31:13.146Z,9.27
2023-03-11T13:33:55.608Z,8.53
2023-03-11T13:36:40.895Z,8.47
2023-03-11T13:39:19.690Z,8.73
2023-03-11T13:41:46.595Z,8.03
2023-03-11T13:44:13.149Z,7.43
2023-03-11T13:46:41.832Z,7.20
2023-03-11T13:49:20.710Z,7.03
2023-03-11T13:51:49.016Z,7.37
2023-03-11T13:54:20.064Z,7.27
2023-03-11T13:56:49.322Z,6.93
2023-03-11T13:59:23.480Z,7.50
2023-03-11T14:01:54.212Z,6.73
2023-03-11T14:04:23.890Z,6.67
2023-03-11T14:06:50.977Z,7.50
2023-03-11T14:09:21.460Z,7.03
2023-03-11T14:11:48.985Z,6.03
2023-03-11T14:14:44.830Z,6.67
2023-03-11T14:17:14.653Z,6.10
2023-03-11T14:19:41.189Z,5.97
2023-03-11T14:22:09.002Z,6.40
2023-03-11T14:24:36.343Z,7.30
2023-03-11T14:27:05.187Z,7.20
2023-03-11T14:29:31.667Z,6.50
2023-03-11T14:31:58.284Z,6.73
2023-03-11T14:34:28.880Z,6.63
2023-03-11T14:36:57.289Z,6.53
2023-03-11T14:39:37.534Z,8.17
2023-03-11T14:42:22.860Z,6.50
2023-03-11T14:44:52.613Z,6.37
2023-03-11T14:47:29.712Z,6.50
2023-03-11T14:49:56.289Z,5.70
2023-03-11T14:52:33.132Z,6.03
2023-03-11T14:55:00.093Z,5.80
2023-03-11T14:57:35.808Z,5.57
2023-03-11T15:00:07.778Z,6.27
2023-03-11T15:02:40.422Z,6.27
2023-03-11T15:05:12.075Z,5.50
2023-03-11T15:07:38.983Z,5.83
2023-03-11T15:10:09.875Z,6.40
2023-03-11T15:12:45.900Z,6.43
2023-03-11T15:15:21.774Z,6.33
2023-03-11T15:17:55.476Z,6.60
2023-03-11T15:20:26.232Z,6.87
2023-03-11T15:22:58.300Z,6.30
2023-03-11T15:25:24.915Z,5.90
2023-03-11T15:27:51.470Z,5.67
2023-03-11T15:30:19.936Z,6.17
2023-03-11T15:32:46.859Z,5.93
2023-03-11T15:35:15.567Z,5.53
2023-03-11T15:37:42.452Z,5.53
2023-03-11T15:40:18.069Z,6.93
2023-03-11T15:42:45.031Z,5.47
2023-03-11T15:45:19.074Z,5.80
2023-03-11T15:47:46.737Z,5.20
2023-03-11T15:50:24.499Z,5.30
2023-03-11T15:52:53.192Z,5.53
2023-03-11T15:55:19.777Z,6.53
2023-03-11T15:57:49.680Z,6.80
2023-03-11T16:00:19.288Z,6.77
2023-03-11T16:02:46.258Z,5.90
2023-03-11T16:05:14.066Z,6.90
2023-03-11T16:07:40.658Z,7.50
2023-03-11T16:10:08.184Z,6.03
2023-03-11T16:12:34.806Z,6.07
2023-03-11T16:15:01.423Z,5.57
2023-03-11T16:17:39.482Z,7.13
2023-03-11T16:20:13.572Z,6.10
2023-03-11T16:22:40.151Z,5.57
2023-03-11T16:25:08.771Z,6.03
2023-03-11T16:27:35.266Z,5.67
2023-03-11T16:30:01.991Z,5.37
2023-03-11T16:32:28.547Z,6.00
2023-03-11T16:34:55.120Z,5.53
2023-03-11T16:37:21.814Z,6.20
2023-03-11T16:39:50.998Z,5.57
2023-03-11T16:42:22.162Z,5.17
2023-03-11T16:44:48.743Z,5.50
2023-03-11T16:47:15.228Z,6.23
2023-03-11T16:49:41.745Z,8.00
2023-03-11T16:52:08.260Z,5.10
2023-03-11T16:54:35.181Z,5.30
2023-03-11T16:57:03.039Z,4.57
2023-03-11T16:59:29.769Z,4.67
2023-03-11T17:01:56.570Z,5.30
2023-03-11T17:04:23.167Z,5.23
2023-03-11T17:06:49.683Z,5.17
2023-03-11T17:09:16.209Z,6.13
2023-03-11T17:11:42.704Z,5.30
2023-03-11T17:14:16.162Z,4.80
2023-03-11T17:16:44.924Z,5.10
2023-03-11T17:19:11.484Z,5.63
2023-03-11T17:21:37.971Z,5.13
2023-03-11T17:24:04.647Z,6.57
2023-03-11T17:26:31.669Z,5.23
2023-03-11T17:28:58.288Z,5.30
2023-03-11T17:31:24.955Z,5.50
2023-03-11T17:33:51.641Z,4.90
2023-03-11T17:36:18.769Z,5.10
2023-03-11T17:38:46.629Z,5.50
2023-03-11T17:41:15.005Z,5.17
2023-03-11T17:43:42.046Z,5.30
2023-03-11T17:46:11.636Z,5.33
2023-03-11T17:48:38.248Z,5.13
2023-03-11T17:51:10.123Z,4.63
2023-03-11T17:53:37.978Z,4.27
2023-03-11T17:56:05.647Z,5.00
2023-03-11T17:58:32.235Z,4.30
2023-03-11T18:00:59.327Z,4.57
2023-03-11T18:03:26.598Z,4.27
2023-03-11T18:05:57.530Z,4.27
2023-03-11T18:08:24.391Z,5.37
2023-03-11T18:10:51.426Z,6.87
2023-03-11T18:13:18.295Z,3.83
2023-03-11T18:15:44.796Z,4.67
2023-03-11T18:18:11.421Z,3.90
2023-03-11T18:20:38.761Z,4.60
2023-03-11T18:23:05.856Z,29.40
2023-03-11T18:25:32.445Z,30.03
2023-03-11T18:27:58.942Z,12.63
2023-03-11T18:30:25.536Z,10.97
2023-03-11T18:32:52.132Z,11.63
2023-03-11T18:35:18.973Z,9.57
2023-03-11T18:37:45.530Z,10.33
2023-03-11T18:40:12.349Z,5.60
2023-03-11T18:42:38.864Z,6.57
2023-03-11T18:45:05.616Z,5.30
2023-03-11T18:47:35.595Z,4.37
2023-03-11T18:50:02.324Z,4.37
2023-03-11T18:52:28.862Z,4.77
2023-03-11T18:54:55.358Z,4.43
2023-03-11T18:57:21.881Z,4.07
2023-03-11T18:59:50.088Z,4.17
2023-03-11T19:02:16.617Z,4.57
2023-03-11T19:04:43.283Z,3.67
2023-03-11T19:07:09.855Z,3.83
2023-03-11T19:09:36.354Z,3.73
2023-03-11T19:12:02.939Z,3.97
2023-03-11T19:14:29.450Z,4.33
2023-03-11T19:16:55.997Z,4.57
2023-03-11T19:19:22.790Z,5.13
2023-03-11T19:21:49.293Z,3.90
2023-03-11T19:24:16.078Z,5.80
2023-03-11T19:26:45.649Z,4.40
2023-03-11T19:29:13.802Z,4.67
2023-03-11T19:31:40.344Z,4.30
2023-03-11T19:34:07.040Z,4.07
2023-03-11T19:36:33.592Z,4.20
2023-03-11T19:39:00.112Z,3.50
2023-03-11T19:41:26.757Z,3.47
2023-03-11T19:43:53.377Z,3.57
2023-03-11T19:46:21.051Z,3.50
2023-03-11T19:48:47.647Z,3.60
2023-03-11T19:51:14.505Z,3.07
2023-03-11T19:53:41.769Z,3.60
2023-03-11T19:56:09.193Z,3.30
2023-03-11T19:58:36.119Z,3.43
2023-03-11T20:01:02.666Z,3.60
2023-03-11T20:03:29.688Z,4.63
2023-03-11T20:05:58.057Z,4.20
2023-03-11T20:08:25.522Z,3.50
2023-03-11T20:10:53.158Z,3.40
2023-03-11T20:13:20.625Z,3.40
2023-03-11T20:15:47.318Z,4.20
2023-03-11T20:18:14.518Z,3.60
2023-03-11T20:20:43.250Z,3.20
2023-03-11T20:23:10.584Z,3.73
2023-03-11T20:25:40.326Z,4.23
2023-03-11T20:28:08.273Z,3.57
2023-03-11T20:30:34.870Z,2.97
2023-03-11T20:33:01.483Z,4.30
2023-03-11T20:35:28.091Z,3.43
2023-03-11T20:37:54.838Z,3.50
2023-03-11T20:40:21.555Z,3.27
2023-03-11T20:42:48.145Z,3.70
2023-03-11T20:45:16.308Z,4.63
2023-03-11T20:47:44.245Z,5.27
2023-03-11T20:50:12.429Z,3.43
2023-03-11T20:52:39.369Z,3.70
2023-03-11T20:55:08.293Z,3.60
2023-03-11T20:57:35.176Z,4.40
2023-03-11T21:00:01.779Z,3.53
2023-03-11T21:02:30.902Z,3.10
2023-03-11T21:04:57.543Z,4.13
2023-03-11T21:07:24.202Z,3.30
2023-03-11T21:09:54.565Z,3.20
2023-03-11T21:12:21.538Z,2.97
2023-03-11T21:14:48.169Z,2.87
2023-03-11T21:17:14.853Z,3.63
2023-03-11T21:19:41.566Z,3.00
2023-03-11T21:22:08.250Z,2.93
2023-03-11T21:24:34.810Z,3.30
2023-03-11T21:27:01.623Z,3.00
2023-03-11T21:29:29.798Z,4.20
2023-03-11T21:31:56.798Z,3.13
2023-03-11T21:34:23.389Z,2.80
2023-03-11T21:36:49.986Z,3.50
2023-03-11T21:39:16.762Z,4.77
2023-03-11T21:41:43.351Z,3.10
2023-03-11T21:44:10.086Z,2.87
2023-03-11T21:46:37.008Z,3.40
2023-03-11T21:49:03.657Z,5.93
2023-03-11T21:51:30.426Z,3.20
2023-03-11T21:53:57.653Z,3.30
2023-03-11T21:56:24.376Z,3.63
2023-03-11T21:58:51.070Z,3.60
2023-03-11T22:01:17.812Z,3.73
2023-03-11T22:03:44.688Z,3.73
2023-03-11T22:06:11.873Z,4.17
2023-03-11T22:08:38.693Z,4.10
2023-03-11T22:11:09.724Z,3.30
2023-03-11T22:13:36.312Z,3.10
2023-03-11T22:16:04.217Z,3.60
2023-03-11T22:18:33.026Z,4.17
2023-03-11T22:20:59.804Z,4.50
2023-03-11T22:23:26.522Z,3.97
2023-03-11T22:25:53.055Z,4.20
2023-03-11T22:28:19.672Z,3.80
2023-03-11T22:30:46.288Z,4.27
2023-03-11T22:33:12.848Z,3.20
2023-03-11T22:35:39.565Z,4.33
2023-03-11T22:38:06.188Z,4.33
2023-03-11T22:40:33.764Z,3.70
2023-03-11T22:43:00.369Z,5.37
2023-03-11T22:45:26.901Z,4.17
2023-03-11T22:47:54.851Z,3.67
2023-03-11T22:50:21.793Z,4.43
2023-03-11T22:52:48.346Z,5.43
2023-03-11T22:55:14.994Z,4.87
2023-03-11T22:57:41.543Z,3.50
2023-03-11T23:00:19.336Z,4.00
2023-03-11T23:02:51.938Z,5.80
2023-03-11T23:05:18.479Z,4.33
2023-03-11T23:07:45.038Z,4.00
2023-03-11T23:10:12.782Z,3.50
2023-03-11T23:12:39.625Z,3.50
2023-03-11T23:15:07.750Z,4.97
2023-03-11T23:17:34.750Z,6.87
2023-03-11T23:20:01.318Z,4.00
2023-03-11T23:22:27.871Z,4.73
2023-03-11T23:24:54.484Z,3.93
2023-03-11T23:27:22.255Z,4.40
2023-03-11T23:29:48.823Z,4.07
2023-03-11T23:32:15.497Z,3.63
2023-03-11T23:34:42.209Z,3.60
2023-03-11T23:37:08.865Z,3.63
2023-03-11T23:39:35.364Z,4.00
2023-03-11T23:42:04.912Z,3.63
2023-03-11T23:44:35.696Z,6.40
2023-03-11T23:47:02.229Z,3.87
2023-03-11T23:49:28.823Z,4.20
2023-03-11T23:51:55.327Z,5.07
2023-03-11T23:54:21.905Z,3.60
2023-03-11T23:56:48.447Z,4.57
2023-03-11T23:59:14.980Z,3.33
